Time,TemperatureF,DewpointF,PressureIn,WindDirection,WindDirectionDegrees,WindSpeedMPH,WindSpeedGustMPH,Humidity,HourlyPrecipIn,Conditions,Clouds,dailyrainin,SoftwareType,DateUTC
2013-07-08 00:00:00,67.9,67.6,28.35,South,180,2.0,3.0,99,0.00,,,0.00,Weather View 32 v70,2013-07-08 04:00:00,
2013-07-08 00:01:00,67.7,67.4,28.35,South,180,1.0,3.0,99,0.00,,,0.00,Weather View 32 v70,2013-07-08 04:01:00,
2013-07-08 00:10:00,67.7,67.4,28.35,South,180,0.0,3.0,99,0.00,,,0.00,Weather View 32 v70,2013-07-08 04:10:00,
2013-07-08 00:20:00,67.7,67.4,28.36,South,180,0.0,2.0,99,0.00,,,0.00,Weather View 32 v70,2013-07-08 04:20:00,
2013-07-08 00:25:00,67.7,67.4,28.35,South,180,0.0,2.0,99,0.00,,,0.00,Weather View 32 v70,2013-07-08 04:25:00,
2013-07-08 00:30:00,67.7,67.4,28.35,South,180,0.0,2.0,99,0.00,,,0.00,Weather View 32 v70,2013-07-08 04:30:00,
2013-07-08 00:35:00,67.5,67.2,28.35,South,180,0.0,2.0,99,0.00,,,0.00,Weather View 32 v70,2013-07-08 04:35:00,
2013-07-08 00:40:00,67.4,67.1,28.35,South,180,0.0,2.0,99,0.00,,,0.00,Weather View 32 v70,2013-07-08 04:40:00,
2013-07-08 00:45:00,67.4,67.1,28.35,South,180,0.0,2.0,99,0.00,,,0.00,Weather View 32 v70,2013-07-08 04:45:00,
2013-07-08 00:50:00,67.3,67.0,28.35,South,180,0.0,2.0,99,0.00,,,0.00,Weather View 32 v70,2013-07-08 04:50:00,
2013-07-08 00:55:00,67.1,66.8,28.35,South,180,0.0,2.0,99,0.00,,,0.00,Weather View 32 v70,2013-07-08 04:55:00,
2013-07-08 01:00:00,67.0,66.7,28.35,South,180,0.0,2.0,99,0.00,,,0.00,Weather View 32 v70,2013-07-08 05:00:00,
2013-07-08 01:05:00,66.9,66.6,28.35,South,180,0.0,2.0,99,0.00,,,0.00,Weather View 32 v70,2013-07-08 05:05:00,
2013-07-08 01:10:00,66.9,66.6,28.35,South,180,0.0,2.0,99,0.00,,,0.00,Weather View 32 v70,2013-07-08 05:10:00,
2013-07-08 01:15:00,66.9,66.6,28.35,South,180,0.0,2.0,99,0.00,,,0.00,Weather View 32 v70,2013-07-08 05:15:00,
2013-07-08 01:20:00,66.9,66.6,28.35,South,180,0.0,2.0,99,0.00,,,0.00,Weather View 32 v70,2013-07-08 05:20:00,
2013-07-08 01:25:00,66.9,66.6,28.35,South,180,0.0,0.0,99,0.00,,,0.00,Weather View 32 v70,2013-07-08 05:25:00,
2013-07-08 01:30:00,66.9,66.6,28.35,SE,135,2.0,2.0,99,0.00,,,0.00,Weather View 32 v70,2013-07-08 05:30:00,
2013-07-08 01:35:00,66.9,66.6,28.35,SE,135,1.0,2.0,99,0.00,,,0.00,Weather View 32 v70,2013-07-08 05:35:00,
2013-07-08 01:40:00,66.9,66.6,28.35,SE,135,1.0,2.0,99,0.00,,,0.00,Weather View 32 v70,2013-07-08 05:40:00,
2013-07-08 01:45:00,66.8,66.5,28.35,SE,135,2.0,2.0,99,0.00,,,0.00,Weather View 32 v70,2013-07-08 05:45:00,
2013-07-08 01:50:00,66.5,66.2,28.35,SE,135,0.0,2.0,99,0.00,,,0.00,Weather View 32 v70,2013-07-08 05:50:00,
2013-07-08 01:55:00,66.4,66.1,28.35,SE,135,0.0,2.0,99,0.00,,,0.00,Weather View 32 v70,2013-07-08 05:55:00,
2013-07-08 02:00:00,66.3,66.0,28.35,SE,135,0.0,2.0,99,0.00,,,0.00,Weather View 32 v70,2013-07-08 06:00:00,
2013-07-08 02:05:00,66.3,66.0,28.35,SE,135,0.0,2.0,99,0.00,,,0.00,Weather View 32 v70,2013-07-08 06:05:00,
2013-07-08 02:10:00,66.1,65.8,28.35,SE,135,0.0,2.0,99,0.00,,,0.00,Weather View 32 v70,2013-07-08 06:10:00,
2013-07-08 02:16:00,66.0,65.7,28.35,SE,135,0.0,2.0,99,0.00,,,0.00,Weather View 32 v70,2013-07-08 06:16:00,
2013-07-08 02:21:00,65.9,65.3,28.35,SE,135,0.0,2.0,98,0.00,,,0.00,Weather View 32 v70,2013-07-08 06:21:00,
2013-07-08 02:26:00,65.9,65.3,28.35,North,360,1.0,2.0,98,0.00,,,0.00,Weather View 32 v70,2013-07-08 06:26:00,
2013-07-08 02:31:00,65.8,65.2,28.35,North,360,1.0,2.0,98,0.00,,,0.00,Weather View 32 v70,2013-07-08 06:31:00,
2013-07-08 02:36:00,65.7,65.1,28.35,North,360,0.0,2.0,98,0.00,,,0.00,Weather View 32 v70,2013-07-08 06:36:00,
2013-07-08 02:41:00,65.7,65.1,28.35,North,360,0.0,2.0,98,0.00,,,0.00,Weather View 32 v70,2013-07-08 06:41:00,
2013-07-08 02:46:00,65.6,65.0,28.35,North,360,0.0,2.0,98,0.00,,,0.00,Weather View 32 v70,2013-07-08 06:46:00,
2013-07-08 02:51:00,65.5,64.9,28.35,North,360,0.0,2.0,98,0.00,,,0.00,Weather View 32 v70,2013-07-08 06:51:00,
2013-07-08 02:56:00,65.4,64.8,28.36,North,360,0.0,2.0,98,0.00,,,0.00,Weather View 32 v70,2013-07-08 06:56:00,
2013-07-08 03:01:00,65.1,64.5,28.35,North,360,1.0,2.0,98,0.00,,,0.00,Weather View 32 v70,2013-07-08 07:01:00,
2013-07-08 03:06:00,64.9,64.3,28.35,North,360,0.0,2.0,98,0.00,,,0.00,Weather View 32 v70,2013-07-08 07:06:00,
2013-07-08 03:11:00,64.7,64.1,28.35,North,360,2.0,2.0,98,0.00,,,0.00,Weather View 32 v70,2013-07-08 07:11:00,
2013-07-08 03:16:00,64.6,64.0,28.35,North,360,0.0,2.0,98,0.00,,,0.00,Weather View 32 v70,2013-07-08 07:16:00,
2013-07-08 03:21:00,64.4,63.8,28.35,North,360,0.0,2.0,98,0.00,,,0.00,Weather View 32 v70,2013-07-08 07:21:00,
2013-07-08 03:26:00,64.4,63.8,28.35,North,360,2.0,2.0,98,0.00,,,0.00,Weather View 32 v70,2013-07-08 07:26:00,
2013-07-08 03:31:00,64.4,63.8,28.35,North,360,0.0,2.0,98,0.00,,,0.00,Weather View 32 v70,2013-07-08 07:31:00,
2013-07-08 03:36:00,64.3,63.7,28.35,North,360,0.0,2.0,98,0.00,,,0.00,Weather View 32 v70,2013-07-08 07:36:00,
2013-07-08 03:41:00,64.4,63.8,28.35,North,360,0.0,2.0,98,0.00,,,0.00,Weather View 32 v70,2013-07-08 07:41:00,
2013-07-08 03:46:00,64.6,64.0,28.35,East,90,2.0,3.0,98,0.00,,,0.00,Weather View 32 v70,2013-07-08 07:46:00,
2013-07-08 03:51:00,64.4,63.8,28.35,East,90,0.0,3.0,98,0.00,,,0.00,Weather View 32 v70,2013-07-08 07:51:00,
2013-07-08 03:56:00,64.1,63.5,28.35,East,90,0.0,3.0,98,0.00,,,0.00,Weather View 32 v70,2013-07-08 07:56:00,
2013-07-08 04:01:00,63.9,63.3,28.35,East,90,0.0,3.0,98,0.00,,,0.00,Weather View 32 v70,2013-07-08 08:01:00,
2013-07-08 04:06:00,63.7,63.1,28.34,East,90,0.0,3.0,98,0.00,,,0.00,Weather View 32 v70,2013-07-08 08:06:00,
2013-07-08 04:11:00,63.5,62.9,28.34,East,90,0.0,3.0,98,0.00,,,0.00,Weather View 32 v70,2013-07-08 08:11:00,
2013-07-08 04:16:00,63.4,62.8,28.35,East,90,0.0,3.0,98,0.00,,,0.00,Weather View 32 v70,2013-07-08 08:16:00,
2013-07-08 04:21:00,63.3,62.7,28.34,NE,45,0.0,3.0,98,0.00,,,0.00,Weather View 32 v70,2013-07-08 08:21:00,
2013-07-08 04:26:00,63.1,62.5,28.34,NE,45,0.0,3.0,98,0.00,,,0.00,Weather View 32 v70,2013-07-08 08:26:00,
2013-07-08 04:31:00,63.1,62.5,28.35,NE,45,0.0,3.0,98,0.00,,,0.00,Weather View 32 v70,2013-07-08 08:31:00,
2013-07-08 04:36:00,63.2,62.6,28.35,NE,45,2.0,3.0,98,0.00,,,0.00,Weather View 32 v70,2013-07-08 08:36:00,
2013-07-08 04:41:00,63.2,62.6,28.34,NE,45,2.0,3.0,98,0.00,,,0.00,Weather View 32 v70,2013-07-08 08:41:00,
2013-07-08 04:46:00,63.1,62.5,28.35,NE,45,2.0,2.0,98,0.00,,,0.00,Weather View 32 v70,2013-07-08 08:46:00,
2013-07-08 04:52:00,62.9,62.3,28.35,NNE,22,2.0,3.0,98,0.00,,,0.00,Weather View 32 v70,2013-07-08 08:52:00,
2013-07-08 04:57:00,62.9,62.3,28.35,North,360,0.0,4.0,98,0.00,,,0.00,Weather View 32 v70,2013-07-08 08:57:00,
2013-07-08 05:02:00,62.8,62.2,28.35,North,360,0.0,4.0,98,0.00,,,0.00,Weather View 32 v70,2013-07-08 09:02:00,
2013-07-08 05:07:00,62.7,62.1,28.35,North,360,0.0,4.0,98,0.00,,,0.00,Weather View 32 v70,2013-07-08 09:07:00,
2013-07-08 05:12:00,62.6,62.0,28.35,North,360,2.0,4.0,98,0.00,,,0.00,Weather View 32 v70,2013-07-08 09:12:00,
2013-07-08 05:17:00,62.5,61.9,28.35,North,360,0.0,4.0,98,0.00,,,0.00,Weather View 32 v70,2013-07-08 09:17:00,
2013-07-08 05:22:00,62.3,61.7,28.35,North,360,0.0,4.0,98,0.00,,,0.00,Weather View 32 v70,2013-07-08 09:22:00,
2013-07-08 05:27:00,62.2,61.6,28.36,North,360,0.0,4.0,98,0.00,,,0.00,Weather View 32 v70,2013-07-08 09:27:00,
2013-07-08 05:32:00,62.1,61.5,28.36,North,360,1.0,4.0,98,0.00,,,0.00,Weather View 32 v70,2013-07-08 09:32:00,
2013-07-08 05:37:00,61.9,61.3,28.36,North,360,0.0,4.0,98,0.00,,,0.00,Weather View 32 v70,2013-07-08 09:37:00,
2013-07-08 05:42:00,61.9,61.3,28.36,NNW,337,2.0,4.0,98,0.00,,,0.00,Weather View 32 v70,2013-07-08 09:42:00,
2013-07-08 05:47:00,61.9,61.3,28.36,NNW,337,0.0,4.0,98,0.00,,,0.00,Weather View 32 v70,2013-07-08 09:47:00,
2013-07-08 05:52:00,61.8,61.2,28.36,NNW,337,1.0,4.0,98,0.00,,,0.00,Weather View 32 v70,2013-07-08 09:52:00,
2013-07-08 05:57:00,61.7,61.1,28.37,East,90,1.0,4.0,98,0.00,,,0.00,Weather View 32 v70,2013-07-08 09:57:00,
2013-07-08 06:02:00,61.7,61.1,28.37,North,360,1.0,4.0,98,0.00,,,0.00,Weather View 32 v70,2013-07-08 10:02:00,
2013-07-08 06:07:00,61.6,61.0,28.37,North,360,0.0,4.0,98,0.00,,,0.00,Weather View 32 v70,2013-07-08 10:07:00,
2013-07-08 06:12:00,61.7,61.1,28.36,North,360,0.0,4.0,98,0.00,,,0.00,Weather View 32 v70,2013-07-08 10:12:00,
2013-07-08 06:17:00,61.7,61.1,28.37,North,360,0.0,4.0,98,0.00,,,0.00,Weather View 32 v70,2013-07-08 10:17:00,
2013-07-08 06:22:00,61.5,60.9,28.37,North,360,0.0,4.0,98,0.00,,,0.00,Weather View 32 v70,2013-07-08 10:22:00,
2013-07-08 06:27:00,61.5,60.9,28.37,North,360,0.0,4.0,98,0.00,,,0.00,Weather View 32 v70,2013-07-08 10:27:00,
2013-07-08 06:32:00,61.6,61.0,28.37,North,360,0.0,4.0,98,0.00,,,0.00,Weather View 32 v70,2013-07-08 10:32:00,
2013-07-08 06:37:00,61.6,61.0,28.36,North,360,0.0,4.0,98,0.00,,,0.00,Weather View 32 v70,2013-07-08 10:37:00,
2013-07-08 06:42:00,61.6,61.0,28.36,North,360,0.0,4.0,98,0.00,,,0.00,Weather View 32 v70,2013-07-08 10:42:00,
2013-07-08 06:47:00,61.6,61.0,28.36,North,360,0.0,4.0,98,0.00,,,0.00,Weather View 32 v70,2013-07-08 10:47:00,
2013-07-08 06:52:00,61.7,61.1,28.37,North,360,1.0,4.0,98,0.00,,,0.00,Weather View 32 v70,2013-07-08 10:52:00,
2013-07-08 06:57:00,61.9,61.3,28.37,West,270,0.0,2.0,98,0.00,,,0.00,Weather View 32 v70,2013-07-08 10:57:00,
2013-07-08 07:02:00,62.1,61.5,28.37,West,270,1.0,2.0,98,0.00,,,0.00,Weather View 32 v70,2013-07-08 11:02:00,
2013-07-08 07:07:00,62.4,61.8,28.37,West,270,0.0,2.0,98,0.00,,,0.00,Weather View 32 v70,2013-07-08 11:07:00,
2013-07-08 07:12:00,62.6,62.0,28.37,West,270,0.0,2.0,98,0.00,,,0.00,Weather View 32 v70,2013-07-08 11:12:00,
2013-07-08 07:17:00,62.7,62.1,28.37,West,270,0.0,2.0,98,0.00,,,0.00,Weather View 32 v70,2013-07-08 11:17:00,
2013-07-08 07:23:00,63.1,62.5,28.37,West,270,0.0,2.0,98,0.00,,,0.00,Weather View 32 v70,2013-07-08 11:23:00,
2013-07-08 07:28:00,63.3,62.7,28.37,West,270,0.0,2.0,98,0.00,,,0.00,Weather View 32 v70,2013-07-08 11:28:00,
2013-07-08 07:33:00,63.5,62.9,28.38,West,270,0.0,2.0,98,0.00,,,0.00,Weather View 32 v70,2013-07-08 11:33:00,
2013-07-08 07:38:00,63.6,63.0,28.38,West,270,0.0,2.0,98,0.00,,,0.00,Weather View 32 v70,2013-07-08 11:38:00,
2013-07-08 07:43:00,63.9,63.3,28.38,West,270,0.0,2.0,98,0.00,,,0.00,Weather View 32 v70,2013-07-08 11:43:00,
2013-07-08 07:48:00,64.1,63.5,28.38,SE,135,0.0,2.0,98,0.00,,,0.00,Weather View 32 v70,2013-07-08 11:48:00,
2013-07-08 07:53:00,64.6,64.0,28.38,SE,135,2.0,2.0,98,0.00,,,0.00,Weather View 32 v70,2013-07-08 11:53:00,
2013-07-08 07:58:00,65.0,64.4,28.38,SE,135,0.0,2.0,98,0.00,,,0.00,Weather View 32 v70,2013-07-08 11:58:00,
2013-07-08 08:03:00,65.5,64.9,28.38,South,180,1.0,2.0,98,0.00,,,0.00,Weather View 32 v70,2013-07-08 12:03:00,
2013-07-08 08:08:00,65.9,65.3,28.38,South,180,0.0,2.0,98,0.00,,,0.00,Weather View 32 v70,2013-07-08 12:08:00,
2013-07-08 08:13:00,66.5,66.2,28.38,South,180,0.0,2.0,99,0.00,,,0.00,Weather View 32 v70,2013-07-08 12:13:00,
2013-07-08 08:18:00,67.2,66.9,28.38,South,180,0.0,2.0,99,0.00,,,0.00,Weather View 32 v70,2013-07-08 12:18:00,
2013-07-08 08:23:00,68.1,67.8,28.39,SW,225,0.0,2.0,99,0.00,,,0.00,Weather View 32 v70,2013-07-08 12:23:00,
2013-07-08 08:28:00,69.4,69.1,28.39,SW,225,0.0,2.0,99,0.00,,,0.00,Weather View 32 v70,2013-07-08 12:28:00,
2013-07-08 08:33:00,70.3,70.0,28.39,SW,225,0.0,2.0,99,0.00,,,0.00,Weather View 32 v70,2013-07-08 12:33:00,
2013-07-08 08:38:00,70.5,70.2,28.39,SW,225,0.0,2.0,99,0.00,,,0.00,Weather View 32 v70,2013-07-08 12:38:00,
2013-07-08 08:43:00,70.7,70.4,28.39,SW,225,0.0,2.0,99,0.00,,,0.00,Weather View 32 v70,2013-07-08 12:43:00,
2013-07-08 08:48:00,70.9,70.6,28.39,SW,225,0.0,2.0,99,0.00,,,0.00,Weather View 32 v70,2013-07-08 12:48:00,
2013-07-08 08:53:00,71.6,71.3,28.39,SW,225,1.0,2.0,99,0.00,,,0.00,Weather View 32 v70,2013-07-08 12:53:00,
2013-07-08 08:58:00,71.9,71.6,28.39,South,180,0.0,2.0,99,0.00,,,0.00,Weather View 32 v70,2013-07-08 12:58:00,
2013-07-08 09:03:00,71.5,71.2,28.39,SE,135,1.0,4.0,99,0.00,,,0.00,Weather View 32 v70,2013-07-08 13:03:00,
2013-07-08 09:08:00,71.4,71.1,28.39,South,180,1.0,4.0,99,0.00,,,0.00,Weather View 32 v70,2013-07-08 13:08:00,
2013-07-08 09:13:00,71.9,71.0,28.39,WSW,247,1.0,4.0,97,0.00,,,0.00,Weather View 32 v70,2013-07-08 13:13:00,
2013-07-08 09:18:00,72.7,72.4,28.40,WSW,247,0.0,4.0,99,0.00,,,0.00,Weather View 32 v70,2013-07-08 13:18:00,
2013-07-08 09:23:00,73.4,73.1,28.40,WSW,247,0.0,4.0,99,0.00,,,0.00,Weather View 32 v70,2013-07-08 13:23:00,
2013-07-08 09:28:00,74.4,73.8,28.40,SW,225,1.0,4.0,98,0.00,,,0.00,Weather View 32 v70,2013-07-08 13:28:00,
2013-07-08 09:33:00,75.3,73.4,28.40,SW,225,1.0,4.0,94,0.00,,,0.00,Weather View 32 v70,2013-07-08 13:33:00,
2013-07-08 09:38:00,76.0,72.8,28.40,WSW,247,2.0,4.0,90,0.00,,,0.00,Weather View 32 v70,2013-07-08 13:38:00,
2013-07-08 09:43:00,76.7,71.8,28.40,WSW,247,1.0,4.0,85,0.00,,,0.00,Weather View 32 v70,2013-07-08 13:43:00,
2013-07-08 09:48:00,76.0,67.9,28.40,SW,225,2.0,4.0,76,0.00,,,0.00,Weather View 32 v70,2013-07-08 13:48:00,
2013-07-08 09:53:00,75.3,66.8,28.40,SW,225,1.0,4.0,75,0.00,,,0.00,Weather View 32 v70,2013-07-08 13:53:00,
2013-07-08 09:54:00,75.2,66.7,28.40,SW,225,1.0,4.0,75,0.00,,,0.00,Weather View 32 v70,2013-07-08 13:54:00,
2013-07-08 09:59:00,74.9,66.8,28.41,SW,225,2.0,4.0,76,0.00,,,0.00,Weather View 32 v70,2013-07-08 13:59:00,
2013-07-08 10:04:00,75.1,68.5,28.41,SW,225,0.0,4.0,80,0.00,,,0.00,Weather View 32 v70,2013-07-08 14:04:00,
2013-07-08 10:09:00,75.2,67.5,28.41,SSW,202,1.0,4.0,77,0.00,,,0.00,Weather View 32 v70,2013-07-08 14:09:00,
2013-07-08 10:14:00,75.2,65.1,28.41,SW,225,4.0,6.0,71,0.00,,,0.00,Weather View 32 v70,2013-07-08 14:14:00,
2013-07-08 10:19:00,74.9,64.4,28.41,WNW,292,0.0,6.0,70,0.00,,,0.00,Weather View 32 v70,2013-07-08 14:19:00,
2013-07-08 10:24:00,75.0,64.9,28.41,SW,225,2.0,6.0,71,0.00,,,0.00,Weather View 32 v70,2013-07-08 14:24:00,
2013-07-08 10:29:00,74.8,65.5,28.41,SW,225,4.0,6.0,73,0.00,,,0.00,Weather View 32 v70,2013-07-08 14:29:00,
2013-07-08 10:34:00,74.4,63.9,28.41,West,270,4.0,6.0,70,0.00,,,0.00,Weather View 32 v70,2013-07-08 14:34:00,
2013-07-08 10:39:00,74.2,64.6,28.41,West,270,1.0,6.0,72,0.00,,,0.00,Weather View 32 v70,2013-07-08 14:39:00,
2013-07-08 10:44:00,74.1,63.2,28.42,West,270,5.0,7.0,69,0.00,,,0.00,Weather View 32 v70,2013-07-08 14:44:00,
2013-07-08 10:49:00,74.3,64.3,28.42,West,270,2.0,7.0,71,0.00,,,0.00,Weather View 32 v70,2013-07-08 14:49:00,
2013-07-08 10:54:00,74.6,64.1,28.42,West,270,4.0,7.0,70,0.00,,,0.00,Weather View 32 v70,2013-07-08 14:54:00,
2013-07-08 10:59:00,74.9,63.6,28.41,West,270,3.0,7.0,68,0.00,,,0.00,Weather View 32 v70,2013-07-08 14:59:00,
2013-07-08 11:04:00,75.9,65.0,28.41,West,270,3.0,7.0,69,0.00,,,0.00,Weather View 32 v70,2013-07-08 15:04:00,
2013-07-08 11:09:00,76.5,64.7,28.41,West,270,2.0,8.0,67,0.00,,,0.00,Weather View 32 v70,2013-07-08 15:09:00,
2013-07-08 11:14:00,77.0,64.7,28.41,West,270,5.0,8.0,66,0.00,,,0.00,Weather View 32 v70,2013-07-08 15:14:00,
2013-07-08 11:19:00,77.2,63.6,28.41,NW,315,5.0,8.0,63,0.00,,,0.00,Weather View 32 v70,2013-07-08 15:19:00,
2013-07-08 11:24:00,77.3,64.6,28.41,SW,225,7.0,9.0,65,0.00,,,0.00,Weather View 32 v70,2013-07-08 15:24:00,
2013-07-08 11:29:00,77.5,65.6,28.41,SW,225,6.0,9.0,67,0.00,,,0.00,Weather View 32 v70,2013-07-08 15:29:00,
2013-07-08 11:34:00,77.5,64.3,28.41,West,270,2.0,9.0,64,0.00,,,0.00,Weather View 32 v70,2013-07-08 15:34:00,
2013-07-08 11:39:00,77.9,63.8,28.41,North,360,2.0,9.0,62,0.00,,,0.00,Weather View 32 v70,2013-07-08 15:39:00,
2013-07-08 11:44:00,79.2,64.1,28.41,North,360,2.0,9.0,60,0.00,,,0.00,Weather View 32 v70,2013-07-08 15:44:00,
2013-07-08 11:49:00,79.9,66.6,28.41,North,360,0.0,9.0,64,0.00,,,0.00,Weather View 32 v70,2013-07-08 15:49:00,
2013-07-08 11:54:00,79.9,64.2,28.41,SE,135,1.0,9.0,59,0.00,,,0.00,Weather View 32 v70,2013-07-08 15:54:00,
2013-07-08 11:59:00,79.3,63.7,28.41,South,180,2.0,9.0,59,0.00,,,0.00,Weather View 32 v70,2013-07-08 15:59:00,
2013-07-08 12:04:00,79.2,65.5,28.41,North,360,2.0,9.0,63,0.00,,,0.00,Weather View 32 v70,2013-07-08 16:04:00,
2013-07-08 12:09:00,79.4,65.7,28.41,NW,315,6.0,9.0,63,0.00,,,0.00,Weather View 32 v70,2013-07-08 16:09:00,
2013-07-08 12:14:00,79.6,66.3,28.41,North,360,0.0,9.0,64,0.00,,,0.00,Weather View 32 v70,2013-07-08 16:14:00,
2013-07-08 12:19:00,80.2,66.4,28.41,South,180,0.0,9.0,63,0.00,,,0.00,Weather View 32 v70,2013-07-08 16:19:00,
2013-07-08 12:24:00,79.9,64.2,28.41,SW,225,1.0,8.0,59,0.00,,,0.00,Weather View 32 v70,2013-07-08 16:24:00,
2013-07-08 12:29:00,79.3,65.6,28.41,West,270,3.0,7.0,63,0.00,,,0.00,Weather View 32 v70,2013-07-08 16:29:00,
2013-07-08 12:34:00,78.9,65.2,28.41,North,360,0.0,7.0,63,0.00,,,0.00,Weather View 32 v70,2013-07-08 16:34:00,
2013-07-08 12:39:00,79.4,65.7,28.41,NW,315,2.0,7.0,63,0.00,,,0.00,Weather View 32 v70,2013-07-08 16:39:00,
2013-07-08 12:45:00,79.2,64.1,28.41,NW,315,4.0,7.0,60,0.00,,,0.00,Weather View 32 v70,2013-07-08 16:45:00,
2013-07-08 12:50:00,78.3,65.1,28.41,SW,225,2.0,7.0,64,0.00,,,0.00,Weather View 32 v70,2013-07-08 16:50:00,
2013-07-08 12:55:00,77.9,65.1,28.41,WSW,247,3.0,7.0,65,0.00,,,0.00,Weather View 32 v70,2013-07-08 16:55:00,
2013-07-08 13:00:00,77.5,65.6,28.41,SW,225,2.0,7.0,67,0.00,,,0.00,Weather View 32 v70,2013-07-08 17:00:00,
2013-07-08 13:05:00,77.5,66.5,28.41,SW,225,2.0,7.0,69,0.00,,,0.00,Weather View 32 v70,2013-07-08 17:05:00,
2013-07-08 13:10:00,77.8,68.4,28.41,SW,225,2.0,7.0,73,0.00,,,0.00,Weather View 32 v70,2013-07-08 17:10:00,
2013-07-08 13:15:00,78.3,67.2,28.41,South,180,5.0,7.0,69,0.00,,,0.00,Weather View 32 v70,2013-07-08 17:15:00,
2013-07-08 13:20:00,78.5,66.6,28.40,SW,225,4.0,7.0,67,0.00,,,0.00,Weather View 32 v70,2013-07-08 17:20:00,
2013-07-08 13:25:00,78.9,66.5,28.40,South,180,5.0,7.0,66,0.00,,,0.00,Weather View 32 v70,2013-07-08 17:25:00,
2013-07-08 13:30:00,78.7,67.2,28.39,South,180,4.0,7.0,68,0.00,,,0.00,Weather View 32 v70,2013-07-08 17:30:00,
2013-07-08 13:35:00,78.9,67.0,28.39,SE,135,2.0,7.0,67,0.00,,,0.00,Weather View 32 v70,2013-07-08 17:35:00,
2013-07-08 13:40:00,78.9,67.8,28.39,SSE,157,1.0,7.0,69,0.00,,,0.00,Weather View 32 v70,2013-07-08 17:40:00,
2013-07-08 13:46:00,79.1,66.3,28.39,South,180,3.0,7.0,65,0.00,,,0.00,Weather View 32 v70,2013-07-08 17:46:00,
2013-07-08 13:51:00,78.7,65.4,28.39,South,180,4.0,6.0,64,0.00,,,0.00,Weather View 32 v70,2013-07-08 17:51:00,
2013-07-08 13:56:00,78.5,67.0,28.39,South,180,2.0,6.0,68,0.00,,,0.00,Weather View 32 v70,2013-07-08 17:56:00,
2013-07-08 14:01:00,77.9,65.6,28.39,West,270,1.0,6.0,66,0.00,,,0.00,Weather View 32 v70,2013-07-08 18:01:00,
2013-07-08 14:10:00,76.4,67.5,28.40,SW,225,4.0,6.0,74,0.01,,,0.01,Weather View 32 v70,2013-07-08 18:10:00,
2013-07-08 14:25:00,75.6,67.5,28.39,South,180,4.0,6.0,76,0.01,,,0.01,Weather View 32 v70,2013-07-08 18:25:00,
2013-07-08 14:31:00,75.3,68.3,28.38,SSE,157,2.0,6.0,79,0.01,,,0.01,Weather View 32 v70,2013-07-08 18:31:00,
2013-07-08 14:36:00,75.9,67.4,28.38,SE,135,1.0,6.0,75,0.01,,,0.01,Weather View 32 v70,2013-07-08 18:36:00,
2013-07-08 14:41:00,76.5,68.0,28.38,SE,135,2.0,6.0,75,0.01,,,0.01,Weather View 32 v70,2013-07-08 18:41:00,
2013-07-08 14:47:00,77.7,71.0,28.38,North,360,1.0,6.0,80,0.01,,,0.01,Weather View 32 v70,2013-07-08 18:47:00,
2013-07-08 14:52:00,78.7,69.7,28.38,North,360,0.0,6.0,74,0.01,,,0.01,Weather View 32 v70,2013-07-08 18:52:00,
2013-07-08 14:57:00,79.1,70.5,28.38,North,360,0.0,6.0,75,0.01,,,0.01,Weather View 32 v70,2013-07-08 18:57:00,
2013-07-08 15:02:00,79.0,68.3,28.38,SW,225,2.0,6.0,70,0.01,,,0.01,Weather View 32 v70,2013-07-08 19:02:00,
2013-07-08 15:08:00,79.0,69.6,28.38,SW,225,2.0,6.0,73,0.00,,,0.01,Weather View 32 v70,2013-07-08 19:08:00,
2013-07-08 15:13:00,79.0,70.4,28.38,South,180,5.0,6.0,75,0.00,,,0.01,Weather View 32 v70,2013-07-08 19:13:00,
2013-07-08 15:18:00,79.5,69.6,28.38,South,180,6.0,6.0,72,0.00,,,0.01,Weather View 32 v70,2013-07-08 19:18:00,
2013-07-08 15:23:00,79.3,69.0,28.38,SSE,157,5.0,9.0,71,0.00,,,0.01,Weather View 32 v70,2013-07-08 19:23:00,
2013-07-08 15:28:00,78.6,68.0,28.38,South,180,6.0,9.0,70,0.00,,,0.01,Weather View 32 v70,2013-07-08 19:28:00,
2013-07-08 15:35:00,78.8,69.4,28.38,South,180,7.0,10.0,73,0.00,,,0.01,Weather View 32 v70,2013-07-08 19:35:00,
2013-07-08 15:40:00,78.8,69.4,28.37,SE,135,7.0,10.0,73,0.00,,,0.01,Weather View 32 v70,2013-07-08 19:40:00,
2013-07-08 15:45:00,78.8,68.6,28.37,South,180,4.0,10.0,71,0.00,,,0.01,Weather View 32 v70,2013-07-08 19:45:00,
2013-07-08 15:50:00,79.3,68.2,28.37,South,180,2.0,10.0,69,0.00,,,0.01,Weather View 32 v70,2013-07-08 19:50:00,
2013-07-08 15:55:00,79.9,67.9,28.37,South,180,4.0,10.0,67,0.00,,,0.01,Weather View 32 v70,2013-07-08 19:55:00,
2013-07-08 16:00:00,79.7,70.6,28.37,SSE,157,4.0,10.0,74,0.00,,,0.01,Weather View 32 v70,2013-07-08 20:00:00,
2013-07-08 16:05:00,79.9,69.6,28.37,South,180,2.0,10.0,71,0.00,,,0.01,Weather View 32 v70,2013-07-08 20:05:00,
2013-07-08 16:11:00,80.6,70.3,28.36,SE,135,6.0,10.0,71,0.00,,,0.01,Weather View 32 v70,2013-07-08 20:11:00,
2013-07-08 16:16:00,80.6,71.1,28.37,SSE,157,4.0,10.0,73,0.00,,,0.01,Weather View 32 v70,2013-07-08 20:16:00,
2013-07-08 16:21:00,80.9,70.6,28.36,South,180,3.0,10.0,71,0.00,,,0.01,Weather View 32 v70,2013-07-08 20:21:00,
2013-07-08 16:27:00,81.0,68.5,28.36,South,180,4.0,10.0,66,0.00,,,0.01,Weather View 32 v70,2013-07-08 20:27:00,
2013-07-08 16:33:00,81.7,68.3,28.35,South,180,4.0,9.0,64,0.00,,,0.01,Weather View 32 v70,2013-07-08 20:33:00,
2013-07-08 16:38:00,81.2,67.8,28.35,South,180,6.0,9.0,64,0.00,,,0.01,Weather View 32 v70,2013-07-08 20:38:00,
2013-07-08 16:43:00,80.9,68.9,28.35,South,180,3.0,9.0,67,0.00,,,0.01,Weather View 32 v70,2013-07-08 20:43:00,
2013-07-08 16:48:00,81.8,68.4,28.35,South,180,4.0,9.0,64,0.00,,,0.01,Weather View 32 v70,2013-07-08 20:48:00,
2013-07-08 16:54:00,82.0,65.2,28.35,South,180,3.0,9.0,57,0.00,,,0.01,Weather View 32 v70,2013-07-08 20:54:00,
2013-07-08 16:59:00,81.3,67.4,28.35,SE,135,4.0,9.0,63,0.00,,,0.01,Weather View 32 v70,2013-07-08 20:59:00,
2013-07-08 17:04:00,81.9,66.1,28.35,SW,225,4.0,9.0,59,0.00,,,0.01,Weather View 32 v70,2013-07-08 21:04:00,
2013-07-08 17:09:00,81.4,65.6,28.35,SW,225,1.0,9.0,59,0.00,,,0.01,Weather View 32 v70,2013-07-08 21:09:00,
2013-07-08 17:15:00,80.9,64.7,28.35,SW,225,4.0,9.0,58,0.00,,,0.01,Weather View 32 v70,2013-07-08 21:15:00,
2013-07-08 17:20:00,80.6,65.4,28.35,SW,225,4.0,9.0,60,0.00,,,0.01,Weather View 32 v70,2013-07-08 21:20:00,
2013-07-08 17:26:00,80.6,66.3,28.35,SW,225,2.0,9.0,62,0.00,,,0.01,Weather View 32 v70,2013-07-08 21:26:00,
2013-07-08 17:31:00,79.9,66.6,28.35,South,180,4.0,9.0,64,0.00,,,0.01,Weather View 32 v70,2013-07-08 21:31:00,
2013-07-08 17:37:00,79.4,67.9,28.35,South,180,2.0,9.0,68,0.00,,,0.01,Weather View 32 v70,2013-07-08 21:37:00,
2013-07-08 17:42:00,79.6,68.5,28.35,SW,225,7.0,9.0,69,0.00,,,0.01,Weather View 32 v70,2013-07-08 21:42:00,
2013-07-08 17:47:00,79.8,68.7,28.35,South,180,4.0,9.0,69,0.00,,,0.01,Weather View 32 v70,2013-07-08 21:47:00,
2013-07-08 17:53:00,79.6,67.6,28.35,South,180,5.0,9.0,67,0.00,,,0.01,Weather View 32 v70,2013-07-08 21:53:00,
2013-07-08 17:58:00,79.1,67.6,28.35,South,180,7.0,9.0,68,0.00,,,0.01,Weather View 32 v70,2013-07-08 21:58:00,
2013-07-08 18:03:00,78.7,68.1,28.35,South,180,2.0,9.0,70,0.00,,,0.01,Weather View 32 v70,2013-07-08 22:03:00,
2013-07-08 18:08:00,78.5,67.4,28.35,South,180,5.0,9.0,69,0.00,,,0.01,Weather View 32 v70,2013-07-08 22:08:00,
2013-07-08 18:13:00,78.5,66.6,28.35,South,180,4.0,9.0,67,0.00,,,0.01,Weather View 32 v70,2013-07-08 22:13:00,
2013-07-08 18:18:00,78.8,66.9,28.35,South,180,2.0,9.0,67,0.00,,,0.01,Weather View 32 v70,2013-07-08 22:18:00,
2013-07-08 18:24:00,79.5,68.4,28.35,South,180,2.0,9.0,69,0.00,,,0.01,Weather View 32 v70,2013-07-08 22:24:00,
2013-07-08 18:29:00,79.9,66.6,28.35,SW,225,2.0,9.0,64,0.00,,,0.01,Weather View 32 v70,2013-07-08 22:29:00,
2013-07-08 18:34:00,80.5,69.3,28.35,SW,225,0.0,9.0,69,0.00,,,0.01,Weather View 32 v70,2013-07-08 22:34:00,
2013-07-08 18:40:00,80.9,68.9,28.35,WSW,247,2.0,9.0,67,0.00,,,0.01,Weather View 32 v70,2013-07-08 22:40:00,
2013-07-08 18:45:00,80.9,67.1,28.35,SW,225,2.0,9.0,63,0.00,,,0.01,Weather View 32 v70,2013-07-08 22:45:00,
2013-07-08 18:50:00,81.1,68.6,28.35,SW,225,3.0,9.0,66,0.00,,,0.01,Weather View 32 v70,2013-07-08 22:50:00,
2013-07-08 18:56:00,81.2,68.7,28.35,WSW,247,4.0,9.0,66,0.00,,,0.01,Weather View 32 v70,2013-07-08 22:56:00,
2013-07-08 19:02:00,80.6,64.9,28.35,West,270,3.0,8.0,59,0.00,,,0.01,Weather View 32 v70,2013-07-08 23:02:00,
2013-07-08 19:07:00,80.4,66.1,28.35,West,270,3.0,8.0,62,0.00,,,0.01,Weather View 32 v70,2013-07-08 23:07:00,
2013-07-08 19:12:00,79.9,66.1,28.35,West,270,3.0,8.0,63,0.00,,,0.01,Weather View 32 v70,2013-07-08 23:12:00,
2013-07-08 19:18:00,79.5,65.3,28.35,WSW,247,4.0,9.0,62,0.00,,,0.01,Weather View 32 v70,2013-07-08 23:18:00,
2013-07-08 19:23:00,79.4,66.1,28.35,West,270,3.0,9.0,64,0.00,,,0.01,Weather View 32 v70,2013-07-08 23:23:00,
2013-07-08 19:29:00,79.3,65.6,28.35,WSW,247,2.0,9.0,63,0.00,,,0.01,Weather View 32 v70,2013-07-08 23:29:00,
2013-07-08 19:34:00,79.3,65.1,28.35,WSW,247,2.0,9.0,62,0.00,,,0.01,Weather View 32 v70,2013-07-08 23:34:00,
2013-07-08 19:39:00,79.2,65.9,28.35,SW,225,2.0,9.0,64,0.00,,,0.01,Weather View 32 v70,2013-07-08 23:39:00,
2013-07-08 19:44:00,79.2,65.0,28.35,SW,225,2.0,9.0,62,0.00,,,0.01,Weather View 32 v70,2013-07-08 23:44:00,
2013-07-08 19:49:00,78.9,65.2,28.35,West,270,2.0,9.0,63,0.00,,,0.01,Weather View 32 v70,2013-07-08 23:49:00,
2013-07-08 19:55:00,78.5,65.7,28.35,West,270,4.0,9.0,65,0.00,,,0.01,Weather View 32 v70,2013-07-08 23:55:00,
2013-07-08 20:00:00,78.3,65.5,28.35,West,270,4.0,9.0,65,0.00,,,0.01,Weather View 32 v70,2013-07-09 00:00:00,
2013-07-08 20:06:00,77.9,66.0,28.36,West,270,3.0,9.0,67,0.00,,,0.01,Weather View 32 v70,2013-07-09 00:06:00,
2013-07-08 20:11:00,77.5,65.2,28.36,SW,225,4.0,9.0,66,0.00,,,0.01,Weather View 32 v70,2013-07-09 00:11:00,
2013-07-08 20:16:00,77.0,65.2,28.36,SW,225,2.0,7.0,67,0.00,,,0.01,Weather View 32 v70,2013-07-09 00:16:00,
2013-07-08 20:22:00,76.7,64.9,28.36,West,270,1.0,7.0,67,0.00,,,0.01,Weather View 32 v70,2013-07-09 00:22:00,
2013-07-08 20:27:00,76.2,65.7,28.36,SW,225,2.0,7.0,70,0.00,,,0.01,Weather View 32 v70,2013-07-09 00:27:00,
2013-07-08 20:32:00,75.9,65.4,28.37,West,270,0.0,7.0,70,0.00,,,0.01,Weather View 32 v70,2013-07-09 00:32:00,
2013-07-08 20:39:00,75.2,65.9,28.37,SW,225,1.0,7.0,73,0.00,,,0.01,Weather View 32 v70,2013-07-09 00:39:00,
2013-07-08 20:44:00,74.5,66.8,28.37,WSW,247,2.0,7.0,77,0.00,,,0.01,Weather View 32 v70,2013-07-09 00:44:00,
2013-07-08 20:49:00,73.7,66.8,28.37,WSW,247,2.0,7.0,79,0.00,,,0.01,Weather View 32 v70,2013-07-09 00:49:00,
2013-07-08 20:54:00,73.4,66.8,28.37,WSW,247,1.0,7.0,80,0.00,,,0.01,Weather View 32 v70,2013-07-09 00:54:00,
2013-07-08 20:59:00,73.2,66.3,28.38,WSW,247,1.0,7.0,79,0.00,,,0.01,Weather View 32 v70,2013-07-09 00:59:00,
2013-07-08 21:04:00,73.2,65.9,28.38,West,270,2.0,6.0,78,0.00,,,0.01,Weather View 32 v70,2013-07-09 01:04:00,
2013-07-08 21:10:00,73.4,66.5,28.38,West,270,1.0,6.0,79,0.00,,,0.01,Weather View 32 v70,2013-07-09 01:10:00,
2013-07-08 21:16:00,73.2,65.9,28.38,West,270,2.0,5.0,78,0.00,,,0.01,Weather View 32 v70,2013-07-09 01:16:00,
2013-07-08 21:22:00,73.2,65.5,28.38,SW,225,1.0,4.0,77,0.00,,,0.01,Weather View 32 v70,2013-07-09 01:22:00,
2013-07-08 21:27:00,73.4,65.3,28.38,WSW,247,1.0,4.0,76,0.00,,,0.01,Weather View 32 v70,2013-07-09 01:27:00,
2013-07-08 21:32:00,73.2,66.3,28.38,West,270,2.0,3.0,79,0.00,,,0.01,Weather View 32 v70,2013-07-09 01:32:00,
2013-07-08 21:37:00,72.4,66.9,28.39,West,270,2.0,3.0,83,0.00,,,0.01,Weather View 32 v70,2013-07-09 01:37:00,
2013-07-08 21:42:00,71.6,66.5,28.39,WNW,292,2.0,3.0,84,0.00,,,0.01,Weather View 32 v70,2013-07-09 01:42:00,
2013-07-08 21:47:00,71.2,66.8,28.39,WNW,292,0.0,3.0,86,0.00,,,0.01,Weather View 32 v70,2013-07-09 01:47:00,
2013-07-08 21:53:00,70.8,66.7,28.39,SW,225,3.0,3.0,87,0.00,,,0.01,Weather View 32 v70,2013-07-09 01:53:00,
2013-07-08 21:58:00,70.8,67.4,28.39,SW,225,2.0,6.0,89,0.00,,,0.01,Weather View 32 v70,2013-07-09 01:58:00,
2013-07-08 22:04:00,70.7,67.0,28.39,SW,225,0.0,6.0,88,0.00,,,0.01,Weather View 32 v70,2013-07-09 02:04:00,
2013-07-08 22:09:00,70.6,65.9,28.39,West,270,2.0,6.0,85,0.00,,,0.01,Weather View 32 v70,2013-07-09 02:09:00,
2013-07-08 22:15:00,71.1,66.7,28.39,SW,225,0.0,6.0,86,0.00,,,0.01,Weather View 32 v70,2013-07-09 02:15:00,
2013-07-08 22:20:00,71.2,65.8,28.39,WNW,292,1.0,6.0,83,0.00,,,0.01,Weather View 32 v70,2013-07-09 02:20:00,
2013-07-08 22:25:00,71.3,66.2,28.39,NW,315,0.0,6.0,84,0.00,,,0.01,Weather View 32 v70,2013-07-09 02:25:00,
2013-07-08 22:32:00,70.9,66.1,28.39,WNW,292,1.0,6.0,85,0.00,,,0.01,Weather View 32 v70,2013-07-09 02:32:00,
2013-07-08 22:37:00,70.7,66.3,28.39,WNW,292,1.0,6.0,86,0.00,,,0.01,Weather View 32 v70,2013-07-09 02:37:00,
2013-07-08 22:42:00,70.5,66.4,28.39,NW,315,2.0,6.0,87,0.00,,,0.01,Weather View 32 v70,2013-07-09 02:42:00,
2013-07-08 22:47:00,70.2,66.8,28.39,WSW,247,2.0,6.0,89,0.00,,,0.01,Weather View 32 v70,2013-07-09 02:47:00,
2013-07-08 22:53:00,69.9,66.5,28.39,SW,225,1.0,6.0,89,0.00,,,0.01,Weather View 32 v70,2013-07-09 02:53:00,
2013-07-08 22:58:00,69.7,66.9,28.39,SW,225,2.0,4.0,91,0.00,,,0.01,Weather View 32 v70,2013-07-09 02:58:00,
2013-07-08 23:04:00,69.9,66.5,28.39,SW,225,3.0,4.0,89,0.00,,,0.01,Weather View 32 v70,2013-07-09 03:04:00,
2013-07-08 23:09:00,70.0,66.6,28.39,West,270,2.0,4.0,89,0.00,,,0.01,Weather View 32 v70,2013-07-09 03:09:00,
2013-07-08 23:15:00,69.9,66.5,28.39,West,270,2.0,4.0,89,0.00,,,0.01,Weather View 32 v70,2013-07-09 03:15:00,
2013-07-08 23:20:00,69.7,66.6,28.39,West,270,2.0,4.0,90,0.00,,,0.01,Weather View 32 v70,2013-07-09 03:20:00,
2013-07-08 23:26:00,69.7,66.9,28.39,West,270,0.0,4.0,91,0.00,,,0.01,Weather View 32 v70,2013-07-09 03:26:00,
2013-07-08 23:31:00,69.5,66.7,28.39,West,270,0.0,4.0,91,0.00,,,0.01,Weather View 32 v70,2013-07-09 03:31:00,
2013-07-08 23:36:00,69.4,66.3,28.39,West,270,2.0,4.0,90,0.00,,,0.01,Weather View 32 v70,2013-07-09 03:36:00,
2013-07-08 23:42:00,69.3,66.5,28.39,West,270,0.0,4.0,91,0.00,,,0.01,Weather View 32 v70,2013-07-09 03:42:00,
2013-07-08 23:47:00,69.1,66.4,28.39,West,270,1.0,4.0,91,0.00,,,0.01,Weather View 32 v70,2013-07-09 03:47:00,
2013-07-08 23:52:00,68.8,66.4,28.39,NW,315,2.0,4.0,92,0.00,,,0.01,Weather View 32 v70,2013-07-09 03:52:00,
2013-07-08 23:57:00,68.6,66.5,28.39,NW,315,1.0,4.0,93,0.00,,,0.01,Weather View 32 v70,2013-07-09 03:57:00,